Aviation Digital Data Service (ADDS)

Output produced by TAFs form (1900 UTC 19 September 2017)
found at http://www.aviationweather.gov/adds/tafs/
 
METAR text: ZSOF 191800Z 33002MPS 2200 -RA BR NSC 22/21 Q1012 NOSIG
Conditions at: ZSOF (HEFEI/XINGIAO , CN) observed 1800 UTC 19 September 2017
Temperature: 22.0°C (72°F)
Dewpoint: 21.0°C (70°F) [RH = 94%]
Pressure (altimeter): 29.88 inches Hg (1012.0 mb)
Winds: from the NNW (330 degrees) at 5 MPH (4 knots; 2.1 m/s)
Visibility: 1.37 miles (2.20 km)
Ceiling: at least 12,000 feet AGL
Clouds: sky clear below 12,000 feet AGL
Weather: -RA BR  (light rain, mist)

Forecast for: ZSOF (HEFEI/XINGIAO , CN)
Text: TAF ZSOF 191501Z 1918/2018 08003MPS 3500 BR NSC TX23/2006Z TN19/1918Z
Forecast period: 1800 UTC 19 September 2017 to 1800 UTC 20 September 2017
Forecast type: FROM: standard forecast or significant change
Winds: from the E (80 degrees) at 7 MPH (6 knots; 3.1 m/s)
Visibility: 2.17 miles (3.49 km)
Clouds: not forecast
Weather: BR  (mist)